Time;durP1;ratioP1;P1;durP2;ratioP2;P2;SDS_P1;SDS_P2;PMS_P1;PMS_P2;Temp;Humidity;BMP_temperature;BMP_pressure;BME280_temperature;BME280_humidity;BME280_pressure;Samples;Min_cycle;Max_cycle;Signal;HPM_P1;HPM_P2
2024/01/27 00:08:06;;;;;;;15.48;5.00;;;;;;;;;;4956083;29;20038;-91
2024/01/27 00:14:23;;;;;;;17.80;5.05;;;;;;;;;;4938843;29;20195;-89
2024/01/27 00:21:18;;;;;;;21.63;5.20;;;;;;;;;;4941339;29;20083;-89
2024/01/27 00:24:03;;;;;;;18.55;4.53;;;;;;;;;;4927705;29;20110;-90
2024/01/27 00:26:54;;;;;;;19.63;4.65;;;;;;;;;;4942333;29;20062;-88
2024/01/27 00:29:38;;;;;;;19.83;5.50;;;;;;;;;;4928588;29;20079;-87
2024/01/27 00:32:22;;;;;;;22.02;5.25;;;;;;;;;;4990482;28;20149;-86
2024/01/27 00:35:07;;;;;;;32.03;6.63;;;;;;;;;;4975317;28;20522;-88
2024/01/27 00:37:51;;;;;;;25.13;5.20;;;;;;;;;;4976359;28;20033;-89
2024/01/27 00:40:38;;;;;;;26.02;6.20;;;;;;;;;;4961736;28;20057;-87
2024/01/27 00:43:25;;;;;;;19.33;5.35;;;;;;;;;;4975872;28;20504;-87
2024/01/27 00:46:10;;;;;;;25.23;5.60;;;;;;;;;;4957413;28;20405;-87
2024/01/27 00:52:35;;;;;;;23.45;5.20;;;;;;;;;;4982257;28;20543;-89
2024/01/27 00:55:19;;;;;;;16.38;4.85;;;;;;;;;;4957481;28;20053;-88
2024/01/27 00:58:04;;;;;;;16.55;5.20;;;;;;;;;;4985089;28;20132;-87
2024/01/27 01:00:48;;;;;;;34.60;8.27;;;;;;;;;;4968309;28;20482;-86
2024/01/27 01:03:32;;;;;;;25.70;6.63;;;;;;;;;;4980476;28;20089;-86
2024/01/27 01:06:19;;;;;;;30.60;5.47;;;;;;;;;;4960807;28;20056;-88
2024/01/27 01:09:09;;;;;;;31.20;6.80;;;;;;;;;;4958924;28;20038;-91
2024/01/27 01:11:53;;;;;;;27.75;5.50;;;;;;;;;;4943039;28;20038;-87
2024/01/27 01:14:37;;;;;;;23.02;5.53;;;;;;;;;;4970802;28;20049;-88
2024/01/27 01:17:21;;;;;;;24.08;5.50;;;;;;;;;;4977412;28;20056;-88
2024/01/27 01:20:06;;;;;;;22.70;4.95;;;;;;;;;;4964756;28;20042;-86
2024/01/27 01:22:53;;;;;;;21.77;4.95;;;;;;;;;;4988947;28;20054;-88
2024/01/27 01:25:38;;;;;;;19.90;4.47;;;;;;;;;;4955608;28;20114;-87
2024/01/27 01:28:21;;;;;;;19.40;5.13;;;;;;;;;;4959942;28;20105;-89
2024/01/27 01:31:07;;;;;;;17.90;4.82;;;;;;;;;;4960643;28;20057;-89
2024/01/27 01:33:52;;;;;;;20.40;5.72;;;;;;;;;;4984520;28;20092;-88
2024/01/27 01:36:37;;;;;;;23.65;5.35;;;;;;;;;;4985792;28;20045;-87
2024/01/27 01:39:21;;;;;;;20.10;4.82;;;;;;;;;;4968261;28;20501;-88
2024/01/27 01:42:07;;;;;;;19.05;5.05;;;;;;;;;;4994749;28;20108;-87
2024/01/27 01:45:29;;;;;;;22.98;5.18;;;;;;;;;;4994456;28;20049;-87
2024/01/27 01:48:13;;;;;;;21.98;5.47;;;;;;;;;;4881122;29;20121;-88
2024/01/27 01:51:06;;;;;;;18.90;4.50;;;;;;;;;;4872758;29;20086;-88
2024/01/27 01:57:58;;;;;;;15.45;4.63;;;;;;;;;;4859623;29;20096;-88
2024/01/27 02:00:43;;;;;;;27.25;4.68;;;;;;;;;;4883167;29;20087;-86
2024/01/27 02:03:27;;;;;;;18.00;4.78;;;;;;;;;;4969877;28;20515;-87
2024/01/27 02:06:12;;;;;;;24.17;5.25;;;;;;;;;;4966427;28;20057;-88
2024/01/27 02:08:56;;;;;;;15.13;4.55;;;;;;;;;;4971406;28;20637;-85
2024/01/27 02:11:40;;;;;;;24.70;6.15;;;;;;;;;;4980827;28;20045;-87
2024/01/27 02:14:27;;;;;;;34.05;4.93;;;;;;;;;;4963838;28;20105;-87
2024/01/27 02:17:11;;;;;;;23.65;4.68;;;;;;;;;;4982631;28;20066;-86
2024/01/27 02:19:56;;;;;;;18.52;4.85;;;;;;;;;;4969559;28;20178;-89
2024/01/27 02:22:40;;;;;;;19.45;4.82;;;;;;;;;;4961677;28;20606;-89
2024/01/27 02:25:24;;;;;;;19.52;4.82;;;;;;;;;;4962981;28;20109;-86
2024/01/27 02:28:08;;;;;;;14.40;5.60;;;;;;;;;;4977580;28;20130;-87
2024/01/27 02:30:59;;;;;;;27.70;5.55;;;;;;;;;;4970468;28;20038;-88
2024/01/27 02:33:44;;;;;;;18.38;5.10;;;;;;;;;;4978243;28;20176;-87
2024/01/27 02:36:27;;;;;;;23.30;5.45;;;;;;;;;;4965766;28;20078;-89
2024/01/27 02:39:12;;;;;;;19.45;7.80;;;;;;;;;;4970115;28;20122;-86
2024/01/27 02:41:59;;;;;;;26.42;6.38;;;;;;;;;;4969974;28;20044;-86
2024/01/27 02:44:43;;;;;;;29.15;5.47;;;;;;;;;;4982483;28;20045;-87
2024/01/27 02:47:29;;;;;;;27.58;5.00;;;;;;;;;;4979949;28;20121;-89
2024/01/27 02:50:13;;;;;;;19.58;4.70;;;;;;;;;;4965548;28;20520;-87
2024/01/27 02:52:58;;;;;;;16.48;4.95;;;;;;;;;;4974294;28;20051;-89
2024/01/27 02:55:43;;;;;;;20.52;5.55;;;;;;;;;;4975544;28;20049;-87
2024/01/27 02:58:27;;;;;;;25.10;5.13;;;;;;;;;;4967901;28;20050;-86
2024/01/27 03:01:11;;;;;;;21.88;4.68;;;;;;;;;;4968232;28;20093;-87
2024/01/27 03:03:55;;;;;;;23.40;5.10;;;;;;;;;;4973300;28;20122;-86
2024/01/27 03:06:39;;;;;;;17.20;3.72;;;;;;;;;;4980421;28;20404;-87
2024/01/27 03:09:29;;;;;;;19.92;5.40;;;;;;;;;;4990826;28;20069;-87
2024/01/27 03:12:14;;;;;;;16.95;4.35;;;;;;;;;;4969065;28;20057;-88
2024/01/27 03:14:58;;;;;;;21.17;5.30;;;;;;;;;;4967077;28;20135;-87
2024/01/27 03:17:43;;;;;;;32.90;6.55;;;;;;;;;;4984170;28;20508;-86
2024/01/27 03:20:46;;;;;;;18.90;3.85;;;;;;;;;;4985868;28;20547;-86
2024/01/27 03:23:33;;;;;;;26.13;4.43;;;;;;;;;;4966920;28;20118;-86
2024/01/27 03:26:17;;;;;;;25.02;4.75;;;;;;;;;;4983012;28;20398;-87
2024/01/27 03:29:02;;;;;;;19.30;3.90;;;;;;;;;;4981466;28;20122;-88
2024/01/27 03:31:49;;;;;;;12.98;3.92;;;;;;;;;;4969399;28;20037;-86
2024/01/27 03:34:33;;;;;;;29.50;4.40;;;;;;;;;;4966474;28;20589;-87
2024/01/27 03:37:17;;;;;;;29.42;4.20;;;;;;;;;;4992301;28;20046;-86
2024/01/27 03:40:02;;;;;;;23.13;4.82;;;;;;;;;;4970626;28;20042;-88
2024/01/27 03:42:53;;;;;;;16.85;4.20;;;;;;;;;;4974320;28;20038;-85
2024/01/27 03:45:38;;;;;;;21.33;4.80;;;;;;;;;;4963517;28;20093;-86
2024/01/27 03:48:25;;;;;;;12.70;3.95;;;;;;;;;;4969961;28;20109;-89
2024/01/27 03:54:52;;;;;;;14.10;4.05;;;;;;;;;;5001182;28;20081;-89
2024/01/27 03:57:37;;;;;;;17.60;3.95;;;;;;;;;;4982751;28;20434;-90
2024/01/27 04:00:23;;;;;;;22.23;4.82;;;;;;;;;;4966304;28;20106;-89
2024/01/27 04:03:09;;;;;;;14.98;3.83;;;;;;;;;;4966076;28;20041;-89
2024/01/27 04:05:53;;;;;;;15.65;3.78;;;;;;;;;;4965788;28;20073;-90
2024/01/27 04:08:38;;;;;;;23.95;4.13;;;;;;;;;;4978026;28;20527;-90
2024/01/27 04:11:22;;;;;;;16.20;4.03;;;;;;;;;;4975030;28;20516;-90
2024/01/27 04:14:06;;;;;;;15.45;4.13;;;;;;;;;;4965804;28;20043;-89
2024/01/27 04:16:50;;;;;;;13.55;4.05;;;;;;;;;;4979302;28;20459;-89
2024/01/27 04:19:35;;;;;;;18.48;5.00;;;;;;;;;;4984810;28;20100;-89
2024/01/27 04:22:19;;;;;;;17.20;4.10;;;;;;;;;;4984741;28;20093;-89
2024/01/27 04:25:04;;;;;;;16.05;4.18;;;;;;;;;;4985140;28;20549;-89
2024/01/27 04:27:48;;;;;;;17.30;5.00;;;;;;;;;;4967543;28;20037;-90
2024/01/27 04:30:35;;;;;;;16.92;4.10;;;;;;;;;;4966794;28;20046;-89
2024/01/27 04:33:19;;;;;;;18.80;4.40;;;;;;;;;;4979985;28;20108;-90
2024/01/27 04:36:03;;;;;;;18.65;4.05;;;;;;;;;;4983879;28;20084;-89
2024/01/27 04:38:47;;;;;;;12.70;4.03;;;;;;;;;;4964622;28;20049;-89
2024/01/27 04:41:31;;;;;;;19.58;4.82;;;;;;;;;;4964073;28;20525;-90
2024/01/27 04:44:15;;;;;;;13.85;4.10;;;;;;;;;;4958673;29;20563;-89
2024/01/27 04:46:59;;;;;;;21.23;4.53;;;;;;;;;;4945166;29;20042;-89
2024/01/27 04:49:46;;;;;;;17.45;4.55;;;;;;;;;;4944728;29;20135;-90
2024/01/27 04:52:31;;;;;;;23.70;5.28;;;;;;;;;;4945827;29;20050;-91
2024/01/27 04:55:16;;;;;;;13.93;4.68;;;;;;;;;;4959892;29;20409;-90
2024/01/27 04:58:00;;;;;;;16.63;4.60;;;;;;;;;;4945664;29;20078;-89
2024/01/27 05:00:44;;;;;;;19.83;4.35;;;;;;;;;;4946466;29;20050;-90
2024/01/27 05:03:29;;;;;;;19.88;4.40;;;;;;;;;;4946011;29;20063;-90
2024/01/27 05:06:13;;;;;;;22.75;4.95;;;;;;;;;;4945098;29;20046;-89
2024/01/27 05:08:58;;;;;;;17.70;4.38;;;;;;;;;;4945159;29;20041;-90
2024/01/27 05:11:45;;;;;;;14.02;4.00;;;;;;;;;;4945577;29;20089;-89
2024/01/27 05:14:29;;;;;;;28.30;5.18;;;;;;;;;;4960015;28;20572;-90
2024/01/27 05:17:13;;;;;;;12.32;4.03;;;;;;;;;;4972819;28;20044;-89
2024/01/27 05:19:58;;;;;;;14.90;4.25;;;;;;;;;;4963142;28;20520;-89
2024/01/27 05:22:42;;;;;;;26.38;4.88;;;;;;;;;;4976156;28;20050;-90
2024/01/27 05:25:26;;;;;;;12.35;4.30;;;;;;;;;;4976295;28;20057;-89
2024/01/27 05:28:10;;;;;;;15.63;5.20;;;;;;;;;;4966371;28;20050;-90
2024/01/27 05:30:54;;;;;;;18.45;5.22;;;;;;;;;;4983405;28;20061;-88
2024/01/27 05:33:41;;;;;;;16.98;4.43;;;;;;;;;;4957859;29;20508;-90
2024/01/27 05:36:26;;;;;;;20.08;4.57;;;;;;;;;;4944966;29;20573;-89
2024/01/27 05:39:10;;;;;;;17.35;5.32;;;;;;;;;;4944924;29;20099;-90
2024/01/27 05:41:54;;;;;;;17.48;4.40;;;;;;;;;;4945494;29;20042;-90
2024/01/27 05:44:40;;;;;;;17.15;4.63;;;;;;;;;;4960084;29;20047;-90
2024/01/27 05:47:24;;;;;;;34.97;6.55;;;;;;;;;;4949084;29;20125;-89
2024/01/27 05:50:08;;;;;;;19.23;5.47;;;;;;;;;;4949126;29;20094;-90
2024/01/27 05:52:53;;;;;;;14.02;4.32;;;;;;;;;;4950547;29;20135;-89
2024/01/27 05:55:37;;;;;;;28.05;5.07;;;;;;;;;;4950561;29;20112;-90
2024/01/27 05:58:21;;;;;;;21.90;5.53;;;;;;;;;;4964765;29;20050;-89
2024/01/27 06:01:05;;;;;;;19.70;4.55;;;;;;;;;;4949962;29;20074;-90
2024/01/27 06:03:52;;;;;;;19.02;5.15;;;;;;;;;;4950285;29;20054;-89
2024/01/27 06:06:40;;;;;;;12.88;4.78;;;;;;;;;;4963900;29;20126;-90
2024/01/27 06:09:24;;;;;;;18.58;4.20;;;;;;;;;;4949626;29;20061;-90
2024/01/27 06:12:08;;;;;;;17.02;4.05;;;;;;;;;;4950021;29;20046;-90
2024/01/27 06:14:52;;;;;;;14.32;4.50;;;;;;;;;;4949849;29;20110;-89
2024/01/27 06:17:39;;;;;;;22.80;5.32;;;;;;;;;;4949329;29;20110;-91
2024/01/27 06:20:23;;;;;;;23.77;5.00;;;;;;;;;;4963151;29;20069;-90
2024/01/27 06:23:07;;;;;;;16.30;4.50;;;;;;;;;;4949113;29;20111;-89
2024/01/27 06:25:51;;;;;;;15.60;4.40;;;;;;;;;;4949800;29;20049;-90
2024/01/27 06:28:36;;;;;;;14.45;4.40;;;;;;;;;;4949028;29;20146;-89
2024/01/27 06:31:22;;;;;;;13.43;4.30;;;;;;;;;;4949124;29;20050;-90
2024/01/27 06:34:06;;;;;;;17.77;4.20;;;;;;;;;;4948273;29;20101;-90
2024/01/27 06:36:51;;;;;;;15.32;4.03;;;;;;;;;;4949732;29;20047;-89
2024/01/27 06:39:35;;;;;;;16.73;4.93;;;;;;;;;;4949379;29;20038;-89
2024/01/27 06:42:23;;;;;;;18.00;5.15;;;;;;;;;;4950288;29;20054;-90
2024/01/27 06:45:09;;;;;;;26.95;5.85;;;;;;;;;;4949375;29;20131;-90
2024/01/27 06:47:56;;;;;;;21.23;4.93;;;;;;;;;;4949524;29;20078;-88
2024/01/27 06:50:40;;;;;;;25.20;4.80;;;;;;;;;;4962623;28;20054;-90
2024/01/27 06:56:40;;;;;;;19.17;4.93;;;;;;;;;;4966795;28;20030;-90
2024/01/27 07:03:08;;;;;;;16.33;4.55;;;;;;;;;;4964438;29;20042;-91
2024/01/27 07:05:52;;;;;;;15.70;6.47;;;;;;;;;;4949375;29;20046;-89
2024/01/27 07:08:36;;;;;;;14.35;5.10;;;;;;;;;;4949459;29;20051;-90
2024/01/27 07:11:23;;;;;;;17.38;4.97;;;;;;;;;;4948983;29;20114;-88
2024/01/27 07:14:07;;;;;;;15.90;5.05;;;;;;;;;;4963266;29;20454;-88
2024/01/27 07:16:52;;;;;;;20.50;5.18;;;;;;;;;;4949444;29;20057;-90
2024/01/27 07:19:36;;;;;;;17.40;4.65;;;;;;;;;;4968506;28;20061;-89
2024/01/27 07:22:20;;;;;;;21.88;4.50;;;;;;;;;;4972443;28;20056;-90
2024/01/27 07:25:05;;;;;;;10.52;4.68;;;;;;;;;;4966319;28;20054;-90
2024/01/27 07:27:53;;;;;;;14.02;5.05;;;;;;;;;;4975491;28;20061;-88
2024/01/27 07:30:39;;;;;;;14.25;4.80;;;;;;;;;;4975881;28;20110;-90
2024/01/27 07:33:29;;;;;;;16.95;5.53;;;;;;;;;;4960823;28;20061;-89
2024/01/27 07:36:13;;;;;;;18.25;6.47;;;;;;;;;;4977311;28;20113;-89
2024/01/27 07:38:58;;;;;;;21.05;4.85;;;;;;;;;;4966806;28;20053;-90
2024/01/27 07:41:44;;;;;;;21.75;6.43;;;;;;;;;;4972455;28;20049;-88
2024/01/27 07:48:36;;;;;;;15.20;4.93;;;;;;;;;;4989145;28;20041;-89
2024/01/27 07:51:20;;;;;;;14.50;5.35;;;;;;;;;;4970133;28;20105;-88
2024/01/27 07:54:23;;;;;;;13.90;5.28;;;;;;;;;;4982861;28;20077;-90
2024/01/27 07:57:16;;;;;;;19.30;4.55;;;;;;;;;;4989732;28;20065;-90
2024/01/27 08:00:18;;;;;;;11.90;4.80;;;;;;;;;;4984939;28;20155;-90
2024/01/27 08:03:03;;;;;;;15.35;4.65;;;;;;;;;;4962393;28;20124;-88
2024/01/27 08:09:10;;;;;;;15.00;4.95;;;;;;;;;;4973572;28;20081;-88
2024/01/27 08:12:05;;;;;;;;;;;;;;;;;;;;;
2024/01/27 08:21:56;;;;;;;18.00;5.00;;;;;;;;;;4990357;28;20049;-90
2024/01/27 08:24:41;;;;;;;15.20;4.45;;;;;;;;;;4984464;28;20045;-91
2024/01/27 08:27:27;;;;;;;19.85;4.90;;;;;;;;;;4963676;28;20074;-90
2024/01/27 08:30:12;;;;;;;20.48;5.32;;;;;;;;;;4981964;28;20406;-85
2024/01/27 08:32:56;;;;;;;17.73;5.38;;;;;;;;;;4965243;28;20049;-85
2024/01/27 08:35:40;;;;;;;17.13;4.88;;;;;;;;;;4969733;28;20080;-89
2024/01/27 08:38:24;;;;;;;20.90;5.00;;;;;;;;;;4970727;28;20042;-89
2024/01/27 08:41:10;;;;;;;19.52;4.80;;;;;;;;;;4961695;28;20547;-88
2024/01/27 08:43:54;;;;;;;11.82;4.95;;;;;;;;;;4965182;28;20069;-88
2024/01/27 08:46:38;;;;;;;12.20;4.60;;;;;;;;;;4973896;28;20045;-88
2024/01/27 08:53:24;;;;;;;14.95;4.93;;;;;;;;;;4967884;28;20139;-88
2024/01/27 08:56:13;;;;;;;23.52;5.25;;;;;;;;;;4970907;28;20050;-88
2024/01/27 08:58:58;;;;;;;21.63;5.20;;;;;;;;;;4969438;28;20042;-87
2024/01/27 09:01:52;;;;;;;22.83;5.63;;;;;;;;;;4971372;28;20033;-87
2024/01/27 09:04:44;;;;;;;17.30;5.75;;;;;;;;;;4974093;28;20066;-88
2024/01/27 09:07:49;;;;;;;22.58;5.60;;;;;;;;;;4965313;28;20500;-89
2024/01/27 09:10:46;;;;;;;20.45;5.15;;;;;;;;;;4961825;28;20041;-89
2024/01/27 09:13:33;;;;;;;20.20;5.80;;;;;;;;;;4973034;28;20527;-88
2024/01/27 09:23:41;;;;;;;;;;;;;;;;;;4997169;28;20077;-87
2024/01/27 09:26:25;;;;;;;16.23;4.85;;;;;;;;;;4982360;28;20386;-87
2024/01/27 09:29:12;;;;;;;15.48;5.10;;;;;;;;;;4972889;28;20240;-87
2024/01/27 09:31:56;;;;;;;11.38;4.32;;;;;;;;;;4970885;28;20122;-87
2024/01/27 09:34:43;;;;;;;17.23;5.50;;;;;;;;;;4982058;28;20092;-87
2024/01/27 09:37:31;;;;;;;22.35;4.75;;;;;;;;;;4981842;28;20096;-87
2024/01/27 09:40:16;;;;;;;16.63;4.80;;;;;;;;;;4981434;28;20139;-88
2024/01/27 09:43:12;;;;;;;13.40;4.75;;;;;;;;;;4956082;29;20079;-87
2024/01/27 09:46:00;;;;;;;25.05;5.80;;;;;;;;;;4959573;28;20085;-88
2024/01/27 09:48:47;;;;;;;21.90;4.75;;;;;;;;;;4977583;28;20076;-88
2024/01/27 09:51:32;;;;;;;16.35;4.80;;;;;;;;;;4967869;28;20053;-88
2024/01/27 09:54:22;;;;;;;17.30;5.22;;;;;;;;;;4964201;28;20098;-88
2024/01/27 09:57:09;;;;;;;19.33;6.68;;;;;;;;;;4967849;28;20058;-87
2024/01/27 09:59:53;;;;;;;13.70;5.10;;;;;;;;;;4970789;28;20097;-87
2024/01/27 10:02:44;;;;;;;18.98;5.40;;;;;;;;;;4980890;28;20124;-88
2024/01/27 10:05:28;;;;;;;11.18;5.13;;;;;;;;;;4959979;28;20134;-88
2024/01/27 10:08:15;;;;;;;15.07;5.55;;;;;;;;;;4961329;28;20085;-86
2024/01/27 10:11:06;;;;;;;14.75;5.13;;;;;;;;;;4969294;28;20086;-89
2024/01/27 10:13:55;;;;;;;15.85;5.50;;;;;;;;;;4969582;28;20057;-87
2024/01/27 10:16:43;;;;;;;16.67;4.90;;;;;;;;;;4961912;28;20037;-86
2024/01/27 10:19:29;;;;;;;16.38;5.90;;;;;;;;;;4970115;28;20050;-86
2024/01/27 10:22:18;;;;;;;17.23;5.30;;;;;;;;;;4984079;28;20050;-86
2024/01/27 10:25:03;;;;;;;19.58;5.63;;;;;;;;;;4985636;28;20046;-89
2024/01/27 10:27:47;;;;;;;29.60;5.93;;;;;;;;;;4969158;28;20041;-89
2024/01/27 10:30:31;;;;;;;19.83;4.82;;;;;;;;;;4970630;28;20085;-90
2024/01/27 10:33:15;;;;;;;18.05;5.85;;;;;;;;;;4973505;28;20074;-88
2024/01/27 10:36:02;;;;;;;18.92;5.68;;;;;;;;;;4979977;28;20042;-88
2024/01/27 10:38:49;;;;;;;12.88;5.45;;;;;;;;;;4979033;28;20117;-91
2024/01/27 10:41:39;;;;;;;22.10;6.35;;;;;;;;;;4983027;28;20105;-88
2024/01/27 10:48:05;;;;;;;16.83;5.10;;;;;;;;;;4999766;28;20082;-90
2024/01/27 10:50:52;;;;;;;16.75;5.68;;;;;;;;;;4985871;28;20141;-90
2024/01/27 10:53:50;;;;;;;21.75;6.55;;;;;;;;;;4986982;28;20078;-90
2024/01/27 10:56:44;;;;;;;19.17;5.90;;;;;;;;;;4986218;28;20533;-89
2024/01/27 10:59:50;;;;;;;22.45;5.88;;;;;;;;;;4973916;28;20049;-91
2024/01/27 11:02:38;;;;;;;18.52;6.10;;;;;;;;;;4957736;29;20537;-90
2024/01/27 11:09:14;;;;;;;20.70;5.65;;;;;;;;;;4977890;28;20042;-87
2024/01/27 11:11:59;;;;;;;17.33;5.80;;;;;;;;;;4980585;28;20443;-90
2024/01/27 11:14:58;;;;;;;15.20;6.07;;;;;;;;;;4949341;28;20435;-88
2024/01/27 11:17:51;;;;;;;16.17;5.45;;;;;;;;;;4980739;28;20508;-88
2024/01/27 11:20:44;;;;;;;21.98;5.93;;;;;;;;;;4985551;28;20049;-89
2024/01/27 11:23:37;;;;;;;22.83;6.13;;;;;;;;;;4978276;28;20393;-87
2024/01/27 11:27:06;;;;;;;18.33;5.88;;;;;;;;;;4970959;28;20053;-89
2024/01/27 11:41:24;;;;;;;13.73;5.47;;;;;;;;;;4960674;29;20050;-92
2024/01/27 11:44:26;;;;;;;12.32;5.72;;;;;;;;;;4895290;29;20076;-89
2024/01/27 11:51:50;;;;;;;;;;;;;;;;;;;;;
2024/01/27 11:55:02;;;;;;;18.98;6.03;;;;;;;;;;4902971;29;20055;-90
2024/01/27 12:12:11;;;;;;;12.25;6.32;;;;;;;;;;4922773;28;20159;-91
2024/01/27 12:18:35;;;;;;;17.70;6.05;;;;;;;;;;4919956;29;20034;-88
2024/01/27 12:25:04;;;;;;;18.48;6.07;;;;;;;;;;4917364;29;20095;-90
2024/01/27 12:43:07;;;;;;;19.27;6.35;;;;;;;;;;4867347;29;20056;-89
2024/01/27 13:40:39;;;;;;;18.48;6.43;;;;;;;;;;4961263;29;20042;-90
2024/01/27 13:50:38;;;;;;;20.08;5.93;;;;;;;;;;4992729;28;20042;-86
2024/01/27 14:00:53;;;;;;;14.93;5.15;;;;;;;;;;4992144;28;20098;-89
2024/01/27 14:03:45;;;;;;;19.27;6.10;;;;;;;;;;4977475;28;20042;-89
2024/01/27 14:06:33;;;;;;;12.98;4.32;;;;;;;;;;4973950;28;20074;-89
2024/01/27 14:13:09;;;;;;;17.02;6.22;;;;;;;;;;4989779;28;20042;-90
2024/01/27 14:16:01;;;;;;;18.98;5.47;;;;;;;;;;4982001;28;20120;-90
2024/01/27 14:18:53;;;;;;;24.55;5.78;;;;;;;;;;4989997;28;20053;-89
2024/01/27 14:25:43;;;;;;;13.55;5.60;;;;;;;;;;4983739;28;20057;-90
2024/01/27 14:28:27;;;;;;;15.55;6.47;;;;;;;;;;4981004;28;20516;-91
2024/01/27 14:52:55;;;;;;;15.05;5.43;;;;;;;;;;4976138;28;20454;-90
2024/01/27 14:56:20;;;;;;;;;;;;;;;;;;;;;
2024/01/27 15:02:57;;;;;;;18.42;6.45;;;;;;;;;;4943938;28;20507;-91
2024/01/27 15:05:47;;;;;;;19.52;5.28;;;;;;;;;;4979905;28;20101;-91
2024/01/27 15:12:25;;;;;;;19.95;6.00;;;;;;;;;;4993182;28;20084;-89
2024/01/27 15:44:03;;;;;;;21.30;5.97;;;;;;;;;;4985985;28;20053;-89
2024/01/27 15:47:08;;;;;;;18.63;5.63;;;;;;;;;;4973864;28;20050;-91
2024/01/27 15:50:21;;;;;;;18.70;6.68;;;;;;;;;;4971515;28;20033;-89
2024/01/27 15:53:31;;;;;;;14.32;6.32;;;;;;;;;;4959754;28;20127;-90
2024/01/27 15:59:59;;;;;;;23.35;6.50;;;;;;;;;;4998570;28;20065;-89
2024/01/27 16:09:57;;;;;;;18.23;7.78;;;;;;;;;;4973498;28;20054;-90
2024/01/27 16:16:06;;;;;;;28.58;9.60;;;;;;;;;;4973480;28;20094;-90
2024/01/27 16:18:53;;;;;;;16.63;7.25;;;;;;;;;;4955742;28;20034;-89
2024/01/27 16:22:03;;;;;;;;;;;;;;;;;;;;;
2024/01/27 16:25:02;;;;;;;23.85;7.65;;;;;;;;;;4975350;28;20543;-89
2024/01/27 16:31:19;;;;;;;34.80;11.35;;;;;;;;;;4974626;28;20090;-90
2024/01/27 16:41:28;;;;;;;20.02;6.38;;;;;;;;;;4964921;28;20038;-89
2024/01/27 16:44:22;;;;;;;19.73;7.32;;;;;;;;;;4957074;28;20049;-91
2024/01/27 16:51:00;;;;;;;26.45;7.25;;;;;;;;;;4978041;28;20033;-89
2024/01/27 16:53:56;;;;;;;22.60;7.85;;;;;;;;;;4948704;28;20053;-91
2024/01/27 16:56:54;;;;;;;;;;;;;;;;;;;;;
2024/01/27 16:59:39;;;;;;;24.40;7.88;;;;;;;;;;4961358;28;20065;-88
2024/01/27 17:02:33;;;;;;;20.52;7.03;;;;;;;;;;4974203;28;20566;-90
2024/01/27 17:05:21;;;;;;;21.10;7.72;;;;;;;;;;4972449;28;20054;-91
2024/01/27 17:08:05;;;;;;;17.83;6.38;;;;;;;;;;4968421;28;20386;-86
2024/01/27 17:10:50;;;;;;;17.60;6.47;;;;;;;;;;4977380;28;20037;-88
2024/01/27 17:20:20;;;;;;;20.13;6.57;;;;;;;;;;4986044;28;20045;-88
2024/01/27 17:23:04;;;;;;;23.40;6.15;;;;;;;;;;4976146;28;20049;-90
2024/01/27 17:25:51;;;;;;;26.10;6.60;;;;;;;;;;4967434;28;20071;-89
2024/01/27 17:28:35;;;;;;;24.70;7.25;;;;;;;;;;4966627;28;20101;-91
2024/01/27 17:31:28;;;;;;;17.35;7.22;;;;;;;;;;4964739;28;20510;-88
2024/01/27 17:34:14;;;;;;;20.38;6.95;;;;;;;;;;4968325;28;20160;-90
2024/01/27 17:36:59;;;;;;;17.70;6.60;;;;;;;;;;4973276;28;20424;-91
2024/01/27 17:42:25;;;;;;;18.55;7.45;;;;;;;;;;4999075;23;20057;-89
2024/01/27 17:45:10;;;;;;;25.35;6.68;;;;;;;;;;4974434;28;20157;-90
2024/01/27 17:48:00;;;;;;;26.98;13.88;;;;;;;;;;4982859;28;20041;-90
2024/01/27 17:50:50;;;;;;;45.95;23.05;;;;;;;;;;4981355;28;20098;-89
2024/01/27 17:53:43;;;;;;;19.92;7.97;;;;;;;;;;4968068;28;20149;-88
2024/01/27 17:56:29;;;;;;;22.75;8.57;;;;;;;;;;4968166;28;20034;-87
2024/01/27 17:59:14;;;;;;;24.27;8.20;;;;;;;;;;4970441;28;20049;-89
2024/01/27 18:01:58;;;;;;;22.10;6.45;;;;;;;;;;4969219;28;20129;-88
2024/01/27 18:04:42;;;;;;;41.78;19.23;;;;;;;;;;4966741;28;20101;-88
2024/01/27 18:07:26;;;;;;;27.33;11.40;;;;;;;;;;4967638;28;20049;-88
2024/01/27 18:10:10;;;;;;;15.60;7.93;;;;;;;;;;4973770;28;20041;-89
2024/01/27 18:12:54;;;;;;;19.02;7.20;;;;;;;;;;4976120;28;20034;-91
2024/01/27 18:19:55;;;;;;;20.60;7.53;;;;;;;;;;4985650;28;20442;-89
2024/01/27 18:22:39;;;;;;;22.60;6.88;;;;;;;;;;4974510;28;20050;-87
2024/01/27 18:25:26;;;;;;;19.90;6.88;;;;;;;;;;4977614;28;20050;-89
2024/01/27 18:28:14;;;;;;;13.90;7.03;;;;;;;;;;4975865;28;20073;-92
2024/01/27 18:31:00;;;;;;;18.00;8.80;;;;;;;;;;4970482;28;20185;-89
2024/01/27 18:33:45;;;;;;;30.98;9.80;;;;;;;;;;4974797;28;20085;-91
2024/01/27 18:36:30;;;;;;;29.90;9.52;;;;;;;;;;4980746;28;20042;-91
2024/01/27 18:39:19;;;;;;;23.00;7.85;;;;;;;;;;4979883;28;20111;-90
2024/01/27 18:42:06;;;;;;;21.55;7.60;;;;;;;;;;4971880;28;20054;-91
2024/01/27 18:44:51;;;;;;;27.05;8.90;;;;;;;;;;4969607;28;20117;-91
2024/01/27 18:47:35;;;;;;;28.50;9.80;;;;;;;;;;4969209;28;20050;-90
2024/01/27 18:50:19;;;;;;;25.30;8.40;;;;;;;;;;4968863;28;20408;-91
2024/01/27 18:53:04;;;;;;;22.55;7.25;;;;;;;;;;4970169;28;20149;-91
2024/01/27 18:59:53;;;;;;;26.50;9.55;;;;;;;;;;4988596;28;20135;-90
2024/01/27 19:06:09;;;;;;;36.13;13.55;;;;;;;;;;4992712;28;20135;-89
2024/01/27 19:08:54;;;;;;;33.28;11.90;;;;;;;;;;4959991;28;20045;-88
2024/01/27 19:11:40;;;;;;;30.40;13.23;;;;;;;;;;4966741;28;20065;-88
2024/01/27 19:14:24;;;;;;;28.23;9.10;;;;;;;;;;4971671;28;20150;-91
2024/01/27 19:17:08;;;;;;;26.42;8.23;;;;;;;;;;4973030;28;20046;-87
2024/01/27 19:19:53;;;;;;;23.90;8.77;;;;;;;;;;4972143;28;20037;-88
2024/01/27 19:22:37;;;;;;;23.30;9.15;;;;;;;;;;4971586;28;20093;-89
2024/01/27 19:25:22;;;;;;;25.00;8.80;;;;;;;;;;4971706;28;20041;-89
2024/01/27 19:28:07;;;;;;;25.73;8.25;;;;;;;;;;4977160;28;20092;-89
2024/01/27 19:30:51;;;;;;;22.42;7.15;;;;;;;;;;4975049;28;20506;-88
2024/01/27 19:33:35;;;;;;;21.80;8.05;;;;;;;;;;4971821;28;20053;-87
2024/01/27 19:36:19;;;;;;;23.48;8.85;;;;;;;;;;4966377;28;20050;-87
2024/01/27 19:39:03;;;;;;;22.42;8.15;;;;;;;;;;4970519;28;20059;-89
2024/01/27 19:41:47;;;;;;;29.52;9.88;;;;;;;;;;4969867;28;20045;-88
2024/01/27 19:44:31;;;;;;;32.80;10.35;;;;;;;;;;4970458;28;20050;-88
2024/01/27 19:47:15;;;;;;;25.85;9.13;;;;;;;;;;4967113;28;20081;-90
2024/01/27 19:49:59;;;;;;;25.00;8.38;;;;;;;;;;4967690;28;20038;-89
2024/01/27 19:52:43;;;;;;;21.80;8.65;;;;;;;;;;4986707;28;20081;-87
2024/01/27 19:55:27;;;;;;;36.72;12.48;;;;;;;;;;4975658;28;20068;-89
2024/01/27 19:58:11;;;;;;;39.55;15.77;;;;;;;;;;4973116;28;20045;-88
2024/01/27 20:00:55;;;;;;;30.92;11.05;;;;;;;;;;4970232;28;20042;-90
2024/01/27 20:03:38;;;;;;;28.70;13.70;;;;;;;;;;4972127;28;20069;-90
2024/01/27 20:06:22;;;;;;;29.20;10.32;;;;;;;;;;4966911;28;20037;-89
2024/01/27 20:09:10;;;;;;;29.52;12.57;;;;;;;;;;4975740;28;20447;-90
2024/01/27 20:11:54;;;;;;;23.27;9.27;;;;;;;;;;4966855;28;20207;-88
2024/01/27 20:14:41;;;;;;;22.20;7.95;;;;;;;;;;4974136;28;20065;-87
2024/01/27 20:17:26;;;;;;;25.55;10.75;;;;;;;;;;4970356;28;20104;-89
2024/01/27 20:20:10;;;;;;;36.42;14.77;;;;;;;;;;4972906;28;20077;-88
2024/01/27 20:23:04;;;;;;;48.95;18.75;;;;;;;;;;4970519;28;20148;-88
2024/01/27 20:25:48;;;;;;;36.97;14.70;;;;;;;;;;4966325;28;20097;-91
2024/01/27 20:28:33;;;;;;;31.48;10.68;;;;;;;;;;4970342;28;20029;-89
2024/01/27 20:31:17;;;;;;;49.30;15.55;;;;;;;;;;4968102;28;20042;-88
2024/01/27 20:34:04;;;;;;;52.00;21.42;;;;;;;;;;4970711;28;20393;-91
2024/01/27 20:36:51;;;;;;;65.82;23.33;;;;;;;;;;4970262;28;20045;-88
2024/01/27 20:39:41;;;;;;;75.60;27.67;;;;;;;;;;4963417;28;20074;-87
2024/01/27 20:42:28;;;;;;;60.20;23.48;;;;;;;;;;4970820;28;20050;-89
2024/01/27 20:45:15;;;;;;;44.00;18.40;;;;;;;;;;4965911;28;20042;-89
2024/01/27 20:47:59;;;;;;;60.83;24.83;;;;;;;;;;4981264;28;20567;-88
2024/01/27 20:50:43;;;;;;;28.42;10.10;;;;;;;;;;4979207;28;20045;-86
2024/01/27 20:53:34;;;;;;;31.02;11.27;;;;;;;;;;4980772;28;20185;-89
2024/01/27 20:56:19;;;;;;;55.47;21.48;;;;;;;;;;4968650;28;20045;-90
2024/01/27 20:59:21;;;;;;;58.05;19.50;;;;;;;;;;4978757;28;20080;-89
2024/01/27 21:02:08;;;;;;;42.40;17.00;;;;;;;;;;4986428;28;20053;-89
2024/01/27 21:04:55;;;;;;;27.35;9.85;;;;;;;;;;4976514;28;20140;-89
2024/01/27 21:07:39;;;;;;;27.63;10.85;;;;;;;;;;4962093;29;20551;-89
2024/01/27 21:10:23;;;;;;;23.45;8.40;;;;;;;;;;4953638;28;20038;-90
2024/01/27 21:13:07;;;;;;;25.20;8.68;;;;;;;;;;4977784;28;20126;-88
2024/01/27 21:15:51;;;;;;;22.77;7.85;;;;;;;;;;4967082;28;20074;-89
2024/01/27 21:18:35;;;;;;;27.63;8.18;;;;;;;;;;4960362;28;20089;-89
2024/01/27 21:21:19;;;;;;;20.48;6.85;;;;;;;;;;4973351;28;20128;-89
2024/01/27 21:24:03;;;;;;;24.83;7.20;;;;;;;;;;4968876;28;20046;-90
2024/01/27 21:26:47;;;;;;;23.77;7.25;;;;;;;;;;4967492;28;20042;-90
2024/01/27 21:29:32;;;;;;;28.10;7.05;;;;;;;;;;4969162;28;20097;-90
2024/01/27 21:32:16;;;;;;;22.60;7.88;;;;;;;;;;4974050;28;20053;-90
2024/01/27 21:35:21;;;;;;;19.00;6.88;;;;;;;;;;4970512;28;20070;-91